HTTB

Tabora Airport

Tabora, Tanzania
METAR HTTB 181300Z 10004KT 9999 FEW018 BKN070 25/18 Q1015 NOSIG
Observed Flight Rules
Jan-18 @ 13:00 UTC (51 minutes ago) Visual Flight Rules
Wind Visibility Clouds
100° at 4 knots 10,000+ meters
  • Few at 1,800' AGL
  • Broken at 7,000' AGL
Temperatures Readings
Current 25°C / 77°F
Dewpoint 18°C / 64°F
Humidity 65%
Altimeter 29.97" Hg
Pressure 1014.92 hPa
Elevation 1190
METAR HTTB 181300Z 10004KT 9999 FEW018 BKN070 25/18 Q1015 NOSIG
Observed Flight Rules
Jan-18 @ 13:00 UTC
(51 minutes ago)
VFR
Wind Visibility
100° at 4 knots 10,000+ meters
Clouds
  • Few at 1,800' AGL
  • Broken at 7,000' AGL
Temperature Dewpoint
25°C / 77°F 18°C / 64°F
Humidity Altimeter Pressure
65% 29.97" Hg 1014.92 hPa